Time;durP1;ratioP1;P1;durP2;ratioP2;P2;SDS_P1;SDS_P2;PMS_P1;PMS_P2;Temp;Humidity;BMP_temperature;BMP_pressure;BME280_temperature;BME280_humidity;BME280_pressure;Samples;Min_cycle;Max_cycle;Signal;HPM_P1;HPM_P2
2021/03/16 00:00:12;;;;;;;14.13;6.75;;;;;;;;;;5054239;28;20072;-75
2021/03/16 00:02:39;;;;;;;12.73;6.65;;;;;;;;;;5053839;28;20032;-75
2021/03/16 00:05:06;;;;;;;13.45;6.93;;;;;;;;;;5054184;28;20496;-75
2021/03/16 00:07:32;;;;;;;19.88;8.23;;;;;;;;;;5054143;28;20048;-75
2021/03/16 00:09:59;;;;;;;26.70;12.05;;;;;;;;;;5054028;28;20154;-75
2021/03/16 00:12:25;;;;;;;13.25;6.32;;;;;;;;;;5052850;28;20021;-76
2021/03/16 00:14:51;;;;;;;11.10;5.85;;;;;;;;;;5054087;28;20047;-75
2021/03/16 00:17:18;;;;;;;12.57;6.63;;;;;;;;;;5053857;28;20017;-75
2021/03/16 00:19:45;;;;;;;16.02;7.45;;;;;;;;;;5053842;28;20070;-76
2021/03/16 00:22:12;;;;;;;12.55;5.85;;;;;;;;;;5053911;28;20017;-75
2021/03/16 00:24:38;;;;;;;13.32;7.03;;;;;;;;;;5053344;28;20035;-75
2021/03/16 00:27:04;;;;;;;15.13;7.53;;;;;;;;;;5053753;28;20013;-75
2021/03/16 00:29:30;;;;;;;16.88;7.20;;;;;;;;;;5053661;28;20025;-75
2021/03/16 00:31:57;;;;;;;14.70;7.32;;;;;;;;;;5053435;28;20547;-75
2021/03/16 00:34:23;;;;;;;15.20;7.45;;;;;;;;;;5053663;28;20041;-75
2021/03/16 00:36:50;;;;;;;14.82;7.18;;;;;;;;;;5052714;28;20025;-75
2021/03/16 00:39:16;;;;;;;14.80;7.40;;;;;;;;;;5053066;28;20036;-76
2021/03/16 00:41:42;;;;;;;13.82;8.05;;;;;;;;;;5052119;28;20025;-76
2021/03/16 00:44:09;;;;;;;14.02;6.75;;;;;;;;;;5053348;28;20043;-76
2021/03/16 00:46:35;;;;;;;12.10;5.22;;;;;;;;;;5051812;28;20017;-75
2021/03/16 00:49:02;;;;;;;16.23;8.20;;;;;;;;;;5053293;28;20036;-75
2021/03/16 00:51:29;;;;;;;12.73;6.65;;;;;;;;;;5053351;28;20021;-75
2021/03/16 00:53:55;;;;;;;13.45;7.13;;;;;;;;;;5052733;28;20110;-75
2021/03/16 00:56:21;;;;;;;12.35;6.40;;;;;;;;;;5053191;28;20025;-75
2021/03/16 00:58:47;;;;;;;10.10;4.90;;;;;;;;;;5052759;28;20025;-75
2021/03/16 01:01:14;;;;;;;8.25;4.95;;;;;;;;;;5053018;28;20515;-75
2021/03/16 01:03:40;;;;;;;9.25;4.43;;;;;;;;;;5053032;28;20509;-75
2021/03/16 01:06:06;;;;;;;6.18;3.78;;;;;;;;;;5052651;28;20017;-75
2021/03/16 01:08:32;;;;;;;9.43;4.45;;;;;;;;;;5052933;28;20025;-75
2021/03/16 01:10:59;;;;;;;8.02;4.35;;;;;;;;;;5052914;28;20499;-75
2021/03/16 01:13:25;;;;;;;9.63;4.50;;;;;;;;;;5052598;28;20036;-75
2021/03/16 01:15:51;;;;;;;8.82;4.60;;;;;;;;;;5052829;28;20025;-76
2021/03/16 01:18:18;;;;;;;9.15;4.55;;;;;;;;;;5052704;28;20029;-75
2021/03/16 01:20:44;;;;;;;6.13;3.80;;;;;;;;;;5052375;28;20377;-75
2021/03/16 01:23:11;;;;;;;5.22;3.10;;;;;;;;;;5052631;28;20392;-75
2021/03/16 01:25:37;;;;;;;6.15;3.72;;;;;;;;;;5052989;28;20021;-75
2021/03/16 01:28:03;;;;;;;6.05;3.50;;;;;;;;;;5052067;28;20025;-75
2021/03/16 01:33:33;;;;;;;5.63;3.28;;;;;;;;;;5052487;28;20091;-75
2021/03/16 01:35:59;;;;;;;4.15;2.72;;;;;;;;;;5052301;28;20020;-75
2021/03/16 01:38:25;;;;;;;4.18;2.70;;;;;;;;;;5052443;28;20025;-76
2021/03/16 01:40:52;;;;;;;4.53;2.30;;;;;;;;;;5052117;28;20025;-76
2021/03/16 01:43:20;;;;;;;4.38;2.35;;;;;;;;;;5052304;28;20484;-75
2021/03/16 01:45:47;;;;;;;5.13;2.90;;;;;;;;;;5051143;28;20021;-75
2021/03/16 01:48:14;;;;;;;4.57;2.83;;;;;;;;;;5051851;28;20025;-75
2021/03/16 01:50:40;;;;;;;3.72;2.33;;;;;;;;;;5052354;28;20017;-75
2021/03/16 01:53:07;;;;;;;4.70;2.95;;;;;;;;;;5052118;28;20498;-75
2021/03/16 01:55:34;;;;;;;4.68;2.72;;;;;;;;;;5052101;28;20026;-75
2021/03/16 01:58:00;;;;;;;6.68;3.15;;;;;;;;;;5051049;28;20504;-75
2021/03/16 02:00:47;;;;;;;5.25;3.20;;;;;;;;;;5052289;28;20028;-75
2021/03/16 02:03:13;;;;;;;5.20;3.08;;;;;;;;;;5051934;28;20025;-75
2021/03/16 02:05:41;;;;;;;4.55;2.72;;;;;;;;;;5052187;28;20029;-75
2021/03/16 02:08:25;;;;;;;5.43;3.38;;;;;;;;;;5052144;28;20025;-75
2021/03/16 02:10:52;;;;;;;3.95;2.63;;;;;;;;;;5051824;28;20029;-75
2021/03/16 02:13:21;;;;;;;5.13;3.03;;;;;;;;;;5052244;28;20508;-75
2021/03/16 02:15:49;;;;;;;5.82;3.13;;;;;;;;;;5052320;28;20017;-76
2021/03/16 02:18:18;;;;;;;5.43;3.13;;;;;;;;;;5051724;28;20079;-75
2021/03/16 02:20:56;;;;;;;5.57;3.03;;;;;;;;;;5050795;28;20216;-75
2021/03/16 02:23:27;;;;;;;5.55;3.13;;;;;;;;;;5051600;28;20027;-75
2021/03/16 02:25:57;;;;;;;6.43;3.08;;;;;;;;;;5051964;28;20021;-75
2021/03/16 02:28:29;;;;;;;6.25;3.33;;;;;;;;;;5051928;28;20100;-75
2021/03/16 02:30:56;;;;;;;5.97;3.40;;;;;;;;;;5051595;28;20098;-75
2021/03/16 02:33:24;;;;;;;6.65;3.38;;;;;;;;;;5050617;28;20100;-75
2021/03/16 02:35:51;;;;;;;6.38;3.65;;;;;;;;;;5052091;28;20032;-75
2021/03/16 02:38:26;;;;;;;7.03;3.05;;;;;;;;;;5051554;28;20096;-75
2021/03/16 02:40:53;;;;;;;5.28;3.20;;;;;;;;;;5051979;28;20091;-75
2021/03/16 02:43:21;;;;;;;5.70;3.03;;;;;;;;;;5051860;28;20108;-75
2021/03/16 02:45:47;;;;;;;5.25;3.00;;;;;;;;;;5051430;28;20473;-75
2021/03/16 02:48:14;;;;;;;5.38;3.03;;;;;;;;;;5050488;28;20505;-75
2021/03/16 02:50:41;;;;;;;6.47;3.25;;;;;;;;;;5051769;28;20461;-76
2021/03/16 02:53:08;;;;;;;7.32;3.60;;;;;;;;;;5051219;28;20090;-76
2021/03/16 02:55:34;;;;;;;7.43;3.17;;;;;;;;;;5050733;28;20027;-76
2021/03/16 02:58:02;;;;;;;6.75;2.88;;;;;;;;;;5051851;28;20041;-75
2021/03/16 03:00:29;;;;;;;4.50;2.85;;;;;;;;;;5052504;28;20049;-75
2021/03/16 03:02:57;;;;;;;4.95;2.90;;;;;;;;;;5055287;28;20063;-75
2021/03/16 03:05:23;;;;;;;6.18;3.10;;;;;;;;;;5054985;28;20055;-75
2021/03/16 03:07:50;;;;;;;4.82;2.80;;;;;;;;;;5055215;28;20488;-75
2021/03/16 03:10:16;;;;;;;7.05;3.40;;;;;;;;;;5055196;28;20493;-75
2021/03/16 03:12:42;;;;;;;6.50;3.33;;;;;;;;;;5053440;28;20384;-75
2021/03/16 03:15:09;;;;;;;8.95;3.85;;;;;;;;;;5055339;28;20464;-75
2021/03/16 03:17:36;;;;;;;7.90;3.55;;;;;;;;;;5053955;28;20025;-75
2021/03/16 03:20:06;;;;;;;7.35;3.97;;;;;;;;;;5054580;28;20431;-75
2021/03/16 03:22:46;;;;;;;9.57;4.25;;;;;;;;;;5054937;28;20029;-75
2021/03/16 03:25:25;;;;;;;9.40;4.15;;;;;;;;;;5053607;28;20036;-74
2021/03/16 03:27:54;;;;;;;7.60;3.30;;;;;;;;;;5054591;28;20060;-72
2021/03/16 03:30:22;;;;;;;7.47;3.80;;;;;;;;;;5054767;28;20024;-72
2021/03/16 03:32:48;;;;;;;7.72;3.80;;;;;;;;;;5053366;28;20044;-75
2021/03/16 03:35:15;;;;;;;6.38;4.28;;;;;;;;;;5054456;28;20025;-74
2021/03/16 03:37:42;;;;;;;5.03;3.58;;;;;;;;;;5054897;28;20021;-74
2021/03/16 03:40:08;;;;;;;4.75;2.88;;;;;;;;;;5054737;28;20021;-75
2021/03/16 03:42:35;;;;;;;6.18;3.70;;;;;;;;;;5054236;28;20329;-75
2021/03/16 03:45:02;;;;;;;5.63;3.80;;;;;;;;;;5054548;28;20021;-75
2021/03/16 03:47:29;;;;;;;5.68;3.85;;;;;;;;;;5054138;28;20040;-75
2021/03/16 03:49:55;;;;;;;6.50;3.80;;;;;;;;;;5054387;28;20017;-75
2021/03/16 03:52:22;;;;;;;8.40;4.35;;;;;;;;;;5054438;28;20056;-74
2021/03/16 03:54:48;;;;;;;7.53;3.95;;;;;;;;;;5052820;28;20038;-74
2021/03/16 03:57:16;;;;;;;6.50;3.80;;;;;;;;;;5054313;28;20385;-74
2021/03/16 03:59:43;;;;;;;6.05;4.03;;;;;;;;;;5053038;28;20021;-74
2021/03/16 04:02:10;;;;;;;7.57;3.97;;;;;;;;;;5053852;28;20021;-74
2021/03/16 04:04:38;;;;;;;7.45;4.70;;;;;;;;;;5054101;28;20024;-75
2021/03/16 04:07:04;;;;;;;9.63;5.15;;;;;;;;;;5054172;28;20017;-74
2021/03/16 04:09:31;;;;;;;7.47;4.22;;;;;;;;;;5053771;28;20017;-74
2021/03/16 04:11:58;;;;;;;9.93;5.20;;;;;;;;;;5054193;28;20021;-74
2021/03/16 04:14:25;;;;;;;7.78;4.13;;;;;;;;;;5054024;28;20033;-74
2021/03/16 04:16:52;;;;;;;8.02;4.70;;;;;;;;;;5053606;28;20018;-74
2021/03/16 04:19:19;;;;;;;8.93;4.38;;;;;;;;;;5052729;28;20055;-74
2021/03/16 04:21:45;;;;;;;8.65;4.82;;;;;;;;;;5053974;28;20552;-74
2021/03/16 04:24:13;;;;;;;9.30;4.53;;;;;;;;;;5052176;28;20029;-73
2021/03/16 04:26:39;;;;;;;8.45;5.15;;;;;;;;;;5053639;28;20025;-74
2021/03/16 04:29:05;;;;;;;11.15;6.53;;;;;;;;;;5053725;28;20028;-73
2021/03/16 04:31:31;;;;;;;17.63;10.73;;;;;;;;;;5053410;28;20430;-73
2021/03/16 04:33:57;;;;;;;13.95;8.52;;;;;;;;;;5053809;28;20037;-74
2021/03/16 04:36:23;;;;;;;12.88;7.35;;;;;;;;;;5053509;28;20025;-73
2021/03/16 04:38:50;;;;;;;15.10;8.45;;;;;;;;;;5053022;28;20079;-73
2021/03/16 04:41:16;;;;;;;9.90;6.25;;;;;;;;;;5053502;28;20401;-73
2021/03/16 04:43:45;;;;;;;9.00;5.55;;;;;;;;;;5053359;28;20025;-76
2021/03/16 04:46:11;;;;;;;8.82;5.38;;;;;;;;;;5053354;28;20134;-73
2021/03/16 04:48:37;;;;;;;10.35;5.78;;;;;;;;;;5053299;28;20037;-73
2021/03/16 04:51:03;;;;;;;11.05;6.15;;;;;;;;;;5052958;28;20449;-73
2021/03/16 04:53:30;;;;;;;8.70;5.22;;;;;;;;;;5051903;28;20049;-74
2021/03/16 04:55:56;;;;;;;7.30;4.47;;;;;;;;;;5053264;28;20464;-74
2021/03/16 04:58:22;;;;;;;8.10;4.82;;;;;;;;;;5051466;28;20036;-73
2021/03/16 05:00:48;;;;;;;7.45;4.40;;;;;;;;;;5053152;28;20078;-73
2021/03/16 05:03:15;;;;;;;8.38;4.80;;;;;;;;;;5051637;28;20461;-73
2021/03/16 05:05:41;;;;;;;8.25;4.95;;;;;;;;;;5052645;28;20142;-73
2021/03/16 05:08:07;;;;;;;6.15;3.80;;;;;;;;;;5051781;28;20025;-73
2021/03/16 05:10:34;;;;;;;6.57;3.80;;;;;;;;;;5052959;28;20021;-75
2021/03/16 05:13:00;;;;;;;8.88;4.15;;;;;;;;;;5052544;28;20111;-73
2021/03/16 05:15:26;;;;;;;7.50;4.28;;;;;;;;;;5052889;28;20017;-75
2021/03/16 05:17:52;;;;;;;5.95;3.63;;;;;;;;;;5052611;28;20025;-73
2021/03/16 05:20:19;;;;;;;9.95;4.43;;;;;;;;;;5051277;28;20033;-75
2021/03/16 05:22:45;;;;;;;8.20;4.90;;;;;;;;;;5050788;28;20021;-75
2021/03/16 05:25:11;;;;;;;9.35;5.10;;;;;;;;;;5052089;28;20381;-74
2021/03/16 05:27:38;;;;;;;9.02;4.93;;;;;;;;;;5050827;28;20021;-74
2021/03/16 05:30:06;;;;;;;13.60;6.13;;;;;;;;;;5052562;28;20025;-75
2021/03/16 05:32:32;;;;;;;13.00;6.07;;;;;;;;;;5050868;28;20025;-74
2021/03/16 05:34:58;;;;;;;10.93;6.30;;;;;;;;;;5050351;28;20078;-73
2021/03/16 05:37:24;;;;;;;10.10;6.30;;;;;;;;;;5050627;28;20261;-73
2021/03/16 05:39:50;;;;;;;6.40;4.15;;;;;;;;;;5050482;28;20446;-73
2021/03/16 05:42:17;;;;;;;9.45;4.60;;;;;;;;;;5048902;28;20021;-72
2021/03/16 05:44:46;;;;;;;7.75;4.60;;;;;;;;;;5050517;28;20017;-74
2021/03/16 05:47:12;;;;;;;6.65;4.10;;;;;;;;;;5050206;28;20115;-74
2021/03/16 05:49:39;;;;;;;9.15;5.47;;;;;;;;;;5052434;28;20388;-75
2021/03/16 05:52:06;;;;;;;8.05;5.38;;;;;;;;;;5051101;28;20476;-75
2021/03/16 05:54:32;;;;;;;8.70;4.95;;;;;;;;;;5052054;28;20120;-75
2021/03/16 05:57:00;;;;;;;9.85;6.00;;;;;;;;;;5052341;28;20037;-75
2021/03/16 05:59:27;;;;;;;8.15;5.03;;;;;;;;;;5052358;28;20385;-75
2021/03/16 06:01:53;;;;;;;11.48;5.18;;;;;;;;;;5051906;28;20520;-74
2021/03/16 06:04:19;;;;;;;8.52;4.88;;;;;;;;;;5052262;28;20029;-72
2021/03/16 06:06:46;;;;;;;8.15;4.97;;;;;;;;;;5052276;28;20028;-74
2021/03/16 06:09:12;;;;;;;28.02;13.65;;;;;;;;;;5051798;28;20450;-75
2021/03/16 06:11:58;;;;;;;18.95;9.43;;;;;;;;;;5051369;28;20074;-74
2021/03/16 06:14:31;;;;;;;11.73;6.68;;;;;;;;;;5052528;28;20473;-75
2021/03/16 06:16:58;;;;;;;17.10;9.73;;;;;;;;;;5049212;28;20048;-79
2021/03/16 06:19:34;;;;;;;18.90;9.77;;;;;;;;;;5050723;28;20029;-76
2021/03/16 06:22:07;;;;;;;19.63;8.98;;;;;;;;;;5050621;28;20501;-75
2021/03/16 06:24:38;;;;;;;15.63;7.93;;;;;;;;;;5051471;28;20485;-74
2021/03/16 06:27:04;;;;;;;12.75;6.40;;;;;;;;;;5051886;28;20021;-72
2021/03/16 06:29:39;;;;;;;11.68;7.10;;;;;;;;;;5049248;28;20024;-71
2021/03/16 06:32:11;;;;;;;10.07;5.68;;;;;;;;;;5048051;28;20056;-71
2021/03/16 06:34:38;;;;;;;10.60;6.03;;;;;;;;;;5036670;28;20036;-74
2021/03/16 06:37:04;;;;;;;9.55;4.90;;;;;;;;;;5054366;28;20017;-73
2021/03/16 06:39:30;;;;;;;8.07;4.85;;;;;;;;;;5054052;28;20071;-70
2021/03/16 06:41:57;;;;;;;9.95;5.10;;;;;;;;;;5053253;28;20605;-71
2021/03/16 06:44:23;;;;;;;10.45;6.28;;;;;;;;;;5053456;28;20473;-72
2021/03/16 06:46:54;;;;;;;8.45;4.45;;;;;;;;;;5055227;28;20543;-70
2021/03/16 06:49:22;;;;;;;7.97;4.50;;;;;;;;;;5054780;28;20029;-69
2021/03/16 06:51:49;;;;;;;9.40;5.25;;;;;;;;;;5054758;28;20021;-69
2021/03/16 06:54:17;;;;;;;14.13;7.03;;;;;;;;;;5052671;28;20604;-70
2021/03/16 06:56:57;;;;;;;10.15;5.80;;;;;;;;;;5051345;28;20493;-69
2021/03/16 06:59:26;;;;;;;16.25;6.45;;;;;;;;;;5051778;28;20135;-70
2021/03/16 07:01:52;;;;;;;13.52;7.72;;;;;;;;;;5052902;28;20021;-73
2021/03/16 07:04:19;;;;;;;12.90;7.30;;;;;;;;;;5052977;28;20103;-71
2021/03/16 07:06:46;;;;;;;17.35;7.70;;;;;;;;;;5051558;28;20021;-72
2021/03/16 07:09:13;;;;;;;16.92;7.55;;;;;;;;;;5052757;28;20021;-73
2021/03/16 07:11:47;;;;;;;14.80;7.95;;;;;;;;;;5051117;28;20489;-72
2021/03/16 07:14:14;;;;;;;11.32;6.32;;;;;;;;;;5053417;28;20043;-71
2021/03/16 07:16:42;;;;;;;11.88;6.45;;;;;;;;;;5048789;28;20021;-72
2021/03/16 07:19:09;;;;;;;12.77;7.55;;;;;;;;;;5025694;28;20036;-71
2021/03/16 07:21:38;;;;;;;14.20;7.93;;;;;;;;;;5022636;28;20482;-73
2021/03/16 07:24:09;;;;;;;14.48;6.45;;;;;;;;;;5019968;28;20028;-73
2021/03/16 07:26:36;;;;;;;14.18;7.15;;;;;;;;;;5019339;28;20017;-71
2021/03/16 07:29:06;;;;;;;10.85;6.25;;;;;;;;;;5020354;28;20391;-74
2021/03/16 07:31:41;;;;;;;11.55;6.38;;;;;;;;;;5020834;28;20021;-73
2021/03/16 07:34:08;;;;;;;12.85;6.50;;;;;;;;;;5025255;28;20067;-70
2021/03/16 07:36:36;;;;;;;14.25;8.18;;;;;;;;;;5022419;28;20206;-72
2021/03/16 07:39:03;;;;;;;15.73;8.00;;;;;;;;;;5021042;28;20503;-70
2021/03/16 07:41:30;;;;;;;14.95;8.13;;;;;;;;;;5022037;28;20473;-73
2021/03/16 07:44:03;;;;;;;13.75;7.68;;;;;;;;;;5019187;28;20044;-72
2021/03/16 07:46:41;;;;;;;18.20;10.52;;;;;;;;;;5022685;28;20552;-73
2021/03/16 07:49:07;;;;;;;14.48;8.18;;;;;;;;;;5016781;28;20104;-73
2021/03/16 07:51:34;;;;;;;16.00;8.00;;;;;;;;;;5017227;28;20095;-69
2021/03/16 07:54:01;;;;;;;13.50;7.03;;;;;;;;;;5019037;28;20060;-70
2021/03/16 07:56:29;;;;;;;14.73;8.23;;;;;;;;;;5021126;28;20032;-71
2021/03/16 07:58:55;;;;;;;18.80;9.73;;;;;;;;;;5019138;28;20047;-71
2021/03/16 08:01:22;;;;;;;15.75;8.07;;;;;;;;;;5019701;28;20098;-75
2021/03/16 08:03:50;;;;;;;13.23;7.13;;;;;;;;;;5016847;28;20129;-73
2021/03/16 08:06:26;;;;;;;11.20;6.95;;;;;;;;;;5014753;28;20017;-73
2021/03/16 08:08:53;;;;;;;10.80;6.82;;;;;;;;;;5011820;28;20033;-74
2021/03/16 08:11:19;;;;;;;12.45;6.05;;;;;;;;;;5016829;28;20021;-76
2021/03/16 08:13:58;;;;;;;12.57;7.43;;;;;;;;;;5018767;28;20037;-76
2021/03/16 08:16:38;;;;;;;13.85;8.35;;;;;;;;;;5036398;28;20061;-77
2021/03/16 08:19:14;;;;;;;12.55;6.63;;;;;;;;;;5016678;28;20029;-74
2021/03/16 08:21:44;;;;;;;8.63;5.78;;;;;;;;;;5018632;28;20044;-77
2021/03/16 08:24:11;;;;;;;10.70;5.72;;;;;;;;;;5016620;28;20134;-69
2021/03/16 08:26:43;;;;;;;14.93;8.40;;;;;;;;;;5019960;28;20761;-73
2021/03/16 08:29:10;;;;;;;9.48;5.22;;;;;;;;;;5019448;28;20911;-72
2021/03/16 08:31:37;;;;;;;10.60;5.80;;;;;;;;;;5017468;28;20053;-73
2021/03/16 08:34:03;;;;;;;11.93;6.22;;;;;;;;;;5018935;28;20029;-71
2021/03/16 08:36:38;;;;;;;12.88;6.68;;;;;;;;;;5017402;28;20020;-74
2021/03/16 08:39:04;;;;;;;9.55;5.05;;;;;;;;;;5019921;28;20963;-72
2021/03/16 08:41:30;;;;;;;10.43;6.25;;;;;;;;;;5016213;28;20036;-71
2021/03/16 08:43:57;;;;;;;11.93;6.13;;;;;;;;;;5017067;28;20024;-72
2021/03/16 08:46:36;;;;;;;10.15;6.10;;;;;;;;;;5021562;28;20063;-69
2021/03/16 08:49:02;;;;;;;11.90;7.18;;;;;;;;;;5017564;28;20048;-71
2021/03/16 08:51:30;;;;;;;10.32;6.20;;;;;;;;;;5018944;28;20417;-73
2021/03/16 08:53:56;;;;;;;13.93;8.23;;;;;;;;;;5016541;28;20049;-74
2021/03/16 08:56:22;;;;;;;18.75;9.45;;;;;;;;;;5017474;28;20049;-69
2021/03/16 08:58:49;;;;;;;15.25;8.23;;;;;;;;;;5031681;28;20120;-72
2021/03/16 09:01:26;;;;;;;13.02;7.93;;;;;;;;;;5039975;28;20043;-74
2021/03/16 09:03:52;;;;;;;13.07;9.25;;;;;;;;;;5050266;28;20033;-71
2021/03/16 09:06:19;;;;;;;16.02;10.90;;;;;;;;;;5051573;28;20021;-72
2021/03/16 09:08:49;;;;;;;16.55;9.23;;;;;;;;;;5047592;28;20036;-72
2021/03/16 09:11:37;;;;;;;16.23;8.95;;;;;;;;;;5021272;28;20036;-72
2021/03/16 09:14:10;;;;;;;10.68;6.25;;;;;;;;;;5015159;28;20059;-73
2021/03/16 09:16:44;;;;;;;12.52;6.50;;;;;;;;;;5019269;28;20841;-73
2021/03/16 09:19:11;;;;;;;17.58;7.63;;;;;;;;;;5019592;28;20068;-74
2021/03/16 09:21:47;;;;;;;19.77;11.82;;;;;;;;;;5018627;28;20032;-74
2021/03/16 09:24:13;;;;;;;16.48;9.48;;;;;;;;;;5021101;28;20705;-72
2021/03/16 09:26:41;;;;;;;16.80;10.02;;;;;;;;;;5020167;28;20013;-74
2021/03/16 09:29:07;;;;;;;14.20;8.40;;;;;;;;;;5016881;28;20040;-72
2021/03/16 09:31:34;;;;;;;13.55;8.23;;;;;;;;;;5019835;28;20183;-71
2021/03/16 09:34:00;;;;;;;11.32;6.70;;;;;;;;;;5011646;28;20037;-71
2021/03/16 09:36:30;;;;;;;11.35;5.35;;;;;;;;;;5019178;28;20021;-74
2021/03/16 09:38:57;;;;;;;12.05;6.80;;;;;;;;;;5018154;28;20079;-72
2021/03/16 09:41:24;;;;;;;17.27;8.15;;;;;;;;;;5021797;28;20499;-72
2021/03/16 09:43:51;;;;;;;11.13;7.20;;;;;;;;;;5018909;28;20033;-72
2021/03/16 09:46:17;;;;;;;8.90;5.95;;;;;;;;;;5019565;28;20021;-74
2021/03/16 09:48:51;;;;;;;14.35;7.00;;;;;;;;;;5024725;28;20710;-72
2021/03/16 09:51:18;;;;;;;11.10;6.57;;;;;;;;;;5018375;28;20086;-71
2021/03/16 09:53:47;;;;;;;11.88;6.75;;;;;;;;;;5018646;28;20832;-72
2021/03/16 09:56:13;;;;;;;23.10;9.77;;;;;;;;;;5016543;28;20048;-72
2021/03/16 09:58:46;;;;;;;14.68;6.55;;;;;;;;;;5019363;28;20116;-71
2021/03/16 10:01:12;;;;;;;18.05;7.68;;;;;;;;;;5019664;28;20036;-69
2021/03/16 10:03:39;;;;;;;11.73;6.70;;;;;;;;;;5021815;28;20496;-71
2021/03/16 10:06:06;;;;;;;15.25;8.02;;;;;;;;;;5022088;28;20107;-73
2021/03/16 10:08:32;;;;;;;18.67;8.82;;;;;;;;;;5018763;28;20005;-71
2021/03/16 10:10:58;;;;;;;15.32;7.28;;;;;;;;;;5025585;28;20036;-69
2021/03/16 10:13:39;;;;;;;19.52;10.15;;;;;;;;;;5025264;28;20564;-71
2021/03/16 10:16:12;;;;;;;19.77;11.30;;;;;;;;;;5025458;28;20107;-72
2021/03/16 10:18:39;;;;;;;21.95;8.95;;;;;;;;;;5015767;28;20319;-70
2021/03/16 10:21:06;;;;;;;20.88;10.55;;;;;;;;;;5024131;28;20230;-70
2021/03/16 10:23:33;;;;;;;21.55;10.95;;;;;;;;;;5030758;28;20036;-69
2021/03/16 10:26:04;;;;;;;9.65;6.20;;;;;;;;;;5024246;28;20025;-70
2021/03/16 10:28:32;;;;;;;12.45;6.57;;;;;;;;;;5021269;28;20021;-71
2021/03/16 10:31:08;;;;;;;10.02;6.40;;;;;;;;;;5019329;28;20380;-71
2021/03/16 10:33:34;;;;;;;13.63;6.88;;;;;;;;;;5022380;28;20460;-72
2021/03/16 10:36:01;;;;;;;12.63;6.93;;;;;;;;;;5018653;28;20021;-71
2021/03/16 10:38:27;;;;;;;11.32;5.93;;;;;;;;;;5019636;28;20032;-74
2021/03/16 10:40:54;;;;;;;14.30;8.00;;;;;;;;;;5024341;28;20217;-71
2021/03/16 10:43:20;;;;;;;17.23;7.72;;;;;;;;;;5021074;28;20025;-72
2021/03/16 10:45:47;;;;;;;13.38;7.55;;;;;;;;;;5021870;28;20036;-72
2021/03/16 10:48:14;;;;;;;16.25;8.50;;;;;;;;;;5021736;28;20027;-72
2021/03/16 10:50:41;;;;;;;13.18;7.90;;;;;;;;;;5019190;28;20938;-72
2021/03/16 10:53:08;;;;;;;11.73;6.90;;;;;;;;;;5013780;28;20061;-72
2021/03/16 10:55:35;;;;;;;12.38;6.65;;;;;;;;;;5020562;28;20033;-75
2021/03/16 10:58:02;;;;;;;13.88;7.00;;;;;;;;;;5024012;28;20039;-75
2021/03/16 11:00:29;;;;;;;11.85;7.07;;;;;;;;;;5016796;28;20029;-74
2021/03/16 11:02:56;;;;;;;11.75;5.55;;;;;;;;;;5020261;28;20029;-74
2021/03/16 11:05:23;;;;;;;7.78;3.97;;;;;;;;;;5020520;28;20879;-74
2021/03/16 11:07:50;;;;;;;11.52;5.68;;;;;;;;;;5024167;28;20106;-75
2021/03/16 11:10:18;;;;;;;11.13;6.00;;;;;;;;;;5021022;28;20025;-74
2021/03/16 11:12:45;;;;;;;13.10;6.28;;;;;;;;;;5022995;28;20032;-75
2021/03/16 11:15:12;;;;;;;10.38;6.50;;;;;;;;;;5013991;28;20033;-71
2021/03/16 11:17:40;;;;;;;11.02;5.82;;;;;;;;;;5017304;28;20024;-73
2021/03/16 11:20:07;;;;;;;15.48;6.40;;;;;;;;;;5018998;28;20058;-73
2021/03/16 11:22:34;;;;;;;13.85;6.97;;;;;;;;;;5017758;28;20032;-73
2021/03/16 11:25:01;;;;;;;8.98;4.97;;;;;;;;;;5018674;28;20086;-70
2021/03/16 11:27:28;;;;;;;10.35;5.03;;;;;;;;;;5012965;28;20594;-72
2021/03/16 11:29:55;;;;;;;15.32;8.43;;;;;;;;;;5017997;28;20048;-71
2021/03/16 11:32:22;;;;;;;11.50;6.78;;;;;;;;;;5019941;28;20364;-70
2021/03/16 11:34:48;;;;;;;15.82;7.88;;;;;;;;;;5020981;28;20036;-71
2021/03/16 11:37:15;;;;;;;17.00;7.60;;;;;;;;;;5021351;28;20233;-70
2021/03/16 11:39:44;;;;;;;15.57;9.10;;;;;;;;;;5016544;28;20121;-70
2021/03/16 11:42:11;;;;;;;13.02;7.68;;;;;;;;;;5017795;28;20032;-70
2021/03/16 11:44:38;;;;;;;10.02;6.60;;;;;;;;;;5022054;28;20082;-69
2021/03/16 11:47:05;;;;;;;11.85;6.75;;;;;;;;;;5018122;28;20064;-69
2021/03/16 11:49:32;;;;;;;14.23;7.03;;;;;;;;;;5021737;28;20028;-69
2021/03/16 11:51:59;;;;;;;17.13;8.52;;;;;;;;;;5022955;28;20059;-71
2021/03/16 11:54:26;;;;;;;11.90;6.68;;;;;;;;;;5016886;28;20094;-70
2021/03/16 11:56:53;;;;;;;12.55;7.93;;;;;;;;;;5015650;28;20569;-69
2021/03/16 11:59:20;;;;;;;13.02;7.20;;;;;;;;;;5015273;28;20024;-71
2021/03/16 12:01:48;;;;;;;14.02;7.93;;;;;;;;;;5052406;28;20108;-67
2021/03/16 12:04:15;;;;;;;12.48;7.15;;;;;;;;;;5053570;28;20033;-66
2021/03/16 12:06:42;;;;;;;12.70;6.07;;;;;;;;;;5053674;28;20100;-69
2021/03/16 12:09:10;;;;;;;11.77;7.22;;;;;;;;;;5052039;28;20111;-71
2021/03/16 12:11:38;;;;;;;13.10;7.60;;;;;;;;;;5052562;28;20021;-69
2021/03/16 12:14:05;;;;;;;14.48;6.07;;;;;;;;;;5051784;28;20063;-70
2021/03/16 12:16:32;;;;;;;15.07;9.90;;;;;;;;;;5053599;28;20025;-72
2021/03/16 12:18:59;;;;;;;12.52;6.85;;;;;;;;;;5053473;28;20021;-69
2021/03/16 12:21:26;;;;;;;12.95;8.68;;;;;;;;;;5052977;28;20075;-70
2021/03/16 12:23:53;;;;;;;13.80;9.25;;;;;;;;;;5053188;28;20061;-68
2021/03/16 12:26:19;;;;;;;16.27;9.60;;;;;;;;;;5053118;28;20028;-71
2021/03/16 12:28:45;;;;;;;11.55;7.13;;;;;;;;;;5053120;28;20096;-71
2021/03/16 12:31:11;;;;;;;16.63;9.15;;;;;;;;;;5033078;28;20587;-71
2021/03/16 12:33:38;;;;;;;13.40;8.55;;;;;;;;;;5032852;28;20025;-72
2021/03/16 12:36:04;;;;;;;12.52;8.45;;;;;;;;;;5051702;28;20029;-73
2021/03/16 12:38:31;;;;;;;14.07;7.72;;;;;;;;;;5050682;28;20021;-72
2021/03/16 12:40:57;;;;;;;15.65;8.23;;;;;;;;;;5052127;28;20146;-74
2021/03/16 12:43:23;;;;;;;14.93;9.88;;;;;;;;;;5044978;28;20025;-71
2021/03/16 12:45:49;;;;;;;22.05;11.77;;;;;;;;;;5051219;28;20025;-70
2021/03/16 12:48:16;;;;;;;21.27;12.05;;;;;;;;;;5052493;28;20029;-70
2021/03/16 12:50:44;;;;;;;20.65;12.25;;;;;;;;;;5050482;28;20033;-70
2021/03/16 12:53:10;;;;;;;12.63;7.97;;;;;;;;;;5050865;28;20048;-71
2021/03/16 12:55:36;;;;;;;16.73;11.23;;;;;;;;;;5053028;28;20484;-72
2021/03/16 12:58:02;;;;;;;17.23;10.65;;;;;;;;;;5052479;28;20082;-72
2021/03/16 13:00:29;;;;;;;15.95;10.10;;;;;;;;;;5049386;28;20033;-72
2021/03/16 13:02:55;;;;;;;12.73;6.88;;;;;;;;;;5049682;28;20098;-70
2021/03/16 13:05:21;;;;;;;12.13;7.25;;;;;;;;;;5045456;28;20834;-71
2021/03/16 13:07:47;;;;;;;17.33;8.48;;;;;;;;;;5050107;28;20048;-71
2021/03/16 13:10:14;;;;;;;12.68;5.80;;;;;;;;;;5046395;28;20063;-71
2021/03/16 13:12:40;;;;;;;11.02;6.20;;;;;;;;;;5048562;28;20047;-72
2021/03/16 13:15:09;;;;;;;19.85;7.18;;;;;;;;;;5051117;28;20039;-71
2021/03/16 13:17:35;;;;;;;17.65;9.55;;;;;;;;;;5049887;28;20040;-71
2021/03/16 13:20:01;;;;;;;20.27;9.88;;;;;;;;;;5050280;28;20481;-71
2021/03/16 13:22:28;;;;;;;16.90;8.20;;;;;;;;;;5051458;28;20075;-71
2021/03/16 13:24:54;;;;;;;15.60;7.78;;;;;;;;;;5048464;28;20061;-71
2021/03/16 13:27:20;;;;;;;17.38;9.05;;;;;;;;;;5050814;28;20478;-71
2021/03/16 13:29:46;;;;;;;18.92;6.60;;;;;;;;;;5052120;28;20111;-71
2021/03/16 13:32:13;;;;;;;14.90;8.48;;;;;;;;;;5051927;28;20020;-71
2021/03/16 13:34:39;;;;;;;13.40;8.02;;;;;;;;;;5051080;28;20497;-72
2021/03/16 13:37:05;;;;;;;11.38;7.32;;;;;;;;;;5052035;28;20055;-73
2021/03/16 13:39:32;;;;;;;13.60;8.95;;;;;;;;;;5050117;28;20028;-71
2021/03/16 13:41:58;;;;;;;13.18;7.07;;;;;;;;;;5051374;28;20021;-71
2021/03/16 13:44:24;;;;;;;18.05;10.82;;;;;;;;;;5049988;28;20029;-72
2021/03/16 13:46:50;;;;;;;24.83;14.25;;;;;;;;;;5051273;28;20032;-71
2021/03/16 13:49:17;;;;;;;17.08;10.15;;;;;;;;;;5051458;28;20054;-72
2021/03/16 13:51:43;;;;;;;18.50;9.88;;;;;;;;;;5050988;28;20115;-71
2021/03/16 13:54:09;;;;;;;15.65;8.80;;;;;;;;;;5051542;28;20064;-72
2021/03/16 13:56:36;;;;;;;12.80;7.03;;;;;;;;;;5052031;28;20055;-71
2021/03/16 13:59:03;;;;;;;15.90;8.65;;;;;;;;;;5050103;28;20025;-72
2021/03/16 14:01:29;;;;;;;21.65;11.60;;;;;;;;;;5051663;28;20021;-72
2021/03/16 14:03:55;;;;;;;13.55;7.32;;;;;;;;;;5050962;28;20484;-72
2021/03/16 14:06:22;;;;;;;18.85;8.88;;;;;;;;;;5052259;28;20388;-72
2021/03/16 14:08:48;;;;;;;16.02;8.43;;;;;;;;;;5052715;28;20033;-72
2021/03/16 14:11:14;;;;;;;17.60;10.40;;;;;;;;;;5052072;28;20021;-71
2021/03/16 14:13:40;;;;;;;15.40;8.95;;;;;;;;;;5051595;28;20032;-72
2021/03/16 14:16:06;;;;;;;23.95;10.15;;;;;;;;;;5050765;28;20025;-72
2021/03/16 14:18:32;;;;;;;20.40;11.70;;;;;;;;;;5051607;28;20461;-70
2021/03/16 14:20:59;;;;;;;20.13;10.20;;;;;;;;;;5050291;28;20043;-70
2021/03/16 14:23:25;;;;;;;15.57;8.57;;;;;;;;;;5050634;28;20017;-70
2021/03/16 14:25:51;;;;;;;15.43;8.48;;;;;;;;;;5051969;28;20082;-71
2021/03/16 14:28:17;;;;;;;20.13;10.40;;;;;;;;;;5051816;28;20028;-70
2021/03/16 14:30:44;;;;;;;18.17;9.50;;;;;;;;;;5051981;28;20036;-70
2021/03/16 14:33:11;;;;;;;22.00;12.02;;;;;;;;;;5051796;28;20053;-71
2021/03/16 14:35:37;;;;;;;20.00;11.82;;;;;;;;;;5051544;28;20108;-71
2021/03/16 14:38:03;;;;;;;19.35;10.88;;;;;;;;;;5051776;28;20095;-71